createdAt,value
2019-06-07T00:03:31.678Z,9.18
2019-06-07T00:08:35.439Z,8.05
2019-06-07T00:13:37.109Z,8.85
2019-06-07T00:18:38.837Z,8.05
2019-06-07T00:23:40.559Z,8.38
2019-06-07T00:28:42.281Z,8.45
2019-06-07T00:33:44.099Z,8.98
2019-06-07T00:38:45.860Z,8.18
2019-06-07T00:43:47.589Z,9.90
2019-06-07T00:48:50.469Z,9.30
2019-06-07T00:53:52.278Z,9.43
2019-06-07T00:59:10.739Z,9.75
2019-06-07T01:03:58.347Z,10.80
2019-06-07T01:09:00.131Z,9.63
2019-06-07T01:14:02.063Z,9.00
2019-06-07T01:19:04.177Z,8.93
2019-06-07T01:24:12.013Z,10.45
2019-06-07T01:29:10.136Z,9.75
2019-06-07T01:34:12.279Z,9.75
2019-06-07T01:39:13.968Z,10.48
2019-06-07T01:44:17.753Z,10.48
2019-06-07T01:49:19.759Z,11.08
2019-06-07T01:59:27.700Z,10.75
2019-06-07T02:04:32.424Z,11.33
2019-06-07T02:09:32.469Z,11.20
2019-06-07T02:14:34.253Z,11.28
2019-06-07T02:19:35.966Z,10.65
2019-06-07T02:24:37.749Z,10.03
2019-06-07T02:29:39.461Z,12.25
2019-06-07T02:34:41.200Z,9.93
2019-06-07T02:39:42.869Z,9.60
2019-06-07T02:44:44.612Z,9.50
2019-06-07T02:49:46.353Z,10.28
2019-06-07T02:54:48.029Z,10.50
2019-06-07T03:00:06.758Z,11.20
2019-06-07T03:04:53.282Z,12.85
2019-06-07T03:09:54.967Z,13.45
2019-06-07T03:14:57.230Z,13.65
2019-06-07T03:19:59.451Z,15.58
2019-06-07T03:25:02.767Z,14.80
2019-06-07T03:30:34.980Z,13.08
2019-06-07T03:35:08.225Z,14.00
2019-06-07T03:40:09.931Z,12.05
2019-06-07T03:45:11.760Z,12.15
2019-06-07T03:50:13.518Z,11.63
2019-06-07T03:55:15.228Z,12.93
2019-06-07T04:00:17.183Z,12.73
2019-06-07T04:05:18.963Z,14.18
2019-06-07T04:10:42.740Z,13.22
2019-06-07T04:15:24.642Z,14.43
2019-06-07T04:20:26.409Z,15.35
2019-06-07T04:25:29.001Z,15.20
2019-06-07T04:30:39.536Z,14.73
2019-06-07T04:35:43.482Z,13.55
2019-06-07T04:40:45.468Z,13.50
2019-06-07T04:45:51.215Z,12.90
2019-06-07T04:50:53.832Z,11.78
2019-06-07T04:55:55.757Z,11.90
2019-06-07T05:01:03.200Z,12.15
2019-06-07T05:06:01.227Z,12.98
2019-06-07T05:11:03.437Z,13.70
2019-06-07T05:16:05.207Z,12.63
2019-06-07T05:21:07.396Z,13.22
2019-06-07T05:26:10.656Z,13.68
2019-06-07T05:31:12.797Z,14.98
2019-06-07T05:36:14.572Z,15.03
2019-06-07T05:41:16.418Z,14.28
2019-06-07T05:46:18.191Z,12.20
2019-06-07T05:51:19.949Z,12.63
2019-06-07T05:56:21.721Z,13.83
2019-06-07T06:01:42.916Z,12.15
2019-06-07T06:06:27.355Z,10.95
2019-06-07T06:11:43.007Z,10.98
2019-06-07T06:16:32.980Z,10.40
2019-06-07T06:21:36.070Z,10.15
2019-06-07T06:26:45.453Z,9.68
2019-06-07T06:32:28.244Z,10.88
2019-06-07T06:36:47.794Z,11.00
2019-06-07T06:41:58.561Z,11.10
2019-06-07T06:46:58.038Z,11.65
2019-06-07T06:51:56.712Z,10.70
2019-06-07T06:57:17.831Z,11.78
2019-06-07T07:02:03.416Z,10.18
2019-06-07T07:07:05.272Z,9.23
2019-06-07T07:12:11.719Z,8.98
2019-06-07T07:17:10.645Z,8.90
2019-06-07T07:22:12.364Z,8.63
2019-06-07T07:27:15.439Z,8.33
2019-06-07T07:32:17.341Z,9.20
2019-06-07T07:37:19.206Z,9.03
2019-06-07T07:42:21.873Z,8.60
2019-06-07T07:47:23.733Z,9.68
2019-06-07T07:52:25.566Z,8.75
2019-06-07T07:57:28.097Z,9.30
2019-06-07T08:02:31.301Z,9.03
2019-06-07T08:07:34.638Z,8.73
2019-06-07T08:12:55.643Z,7.40
2019-06-07T08:17:40.782Z,6.75
2019-06-07T08:22:42.751Z,5.80
2019-06-07T08:27:44.513Z,6.20
2019-06-07T08:32:50.974Z,6.53
2019-06-07T08:43:11.345Z,5.60
2019-06-07T08:48:04.437Z,5.55
2019-06-07T08:53:11.493Z,4.85
2019-06-07T08:58:08.734Z,4.72
2019-06-07T09:03:09.718Z,4.72
2019-06-07T09:08:29.202Z,4.92
2019-06-07T09:13:15.037Z,4.33
2019-06-07T09:18:40.937Z,4.33
2019-06-07T09:23:20.477Z,4.50
